Time;durP1;ratioP1;P1;durP2;ratioP2;P2;SDS_P1;SDS_P2;PMS_P1;PMS_P2;Temp;Humidity;BMP_temperature;BMP_pressure;BME280_temperature;BME280_humidity;BME280_pressure;Samples;Min_cycle;Max_cycle;Signal;HPM_P1;HPM_P2
2023/10/25 13:52:11;;;;;;;11.07;2.15;;;;;;;;;;5051670;27;20476;-40
2023/10/25 13:54:36;;;;;;;17.63;2.17;;;;;;;;;;5045880;28;20047;-38
2023/10/25 13:57:02;;;;;;;14.35;1.90;;;;;;;;;;5075292;28;20543;-39
2023/10/25 13:59:27;;;;;;;11.13;1.80;;;;;;;;;;5044651;28;20024;-40
2023/10/25 14:01:53;;;;;;;6.80;2.28;;;;;;;;;;5039167;28;20512;-40
2023/10/25 14:04:18;;;;;;;8.45;1.90;;;;;;;;;;5042981;28;20025;-40
2023/10/25 14:06:43;;;;;;;9.38;1.88;;;;;;;;;;5042407;28;20028;-53
2023/10/25 14:09:10;;;;;;;8.27;1.92;;;;;;;;;;5042601;28;20040;-49
2023/10/25 14:11:35;;;;;;;11.30;2.22;;;;;;;;;;5042151;28;20033;-47
2023/10/25 14:14:00;;;;;;;4.60;1.67;;;;;;;;;;5043194;28;20246;-52
2023/10/25 14:16:26;;;;;;;7.10;1.90;;;;;;;;;;5042147;28;20318;-51
2023/10/25 14:18:51;;;;;;;138.10;7.38;;;;;;;;;;5041594;28;20032;-49
2023/10/25 14:21:19;;;;;;;5.00;1.90;;;;;;;;;;5040826;28;20190;-55
2023/10/25 14:23:45;;;;;;;8.80;1.80;;;;;;;;;;5048586;28;20048;-60
2023/10/25 14:26:10;;;;;;;9.90;2.20;;;;;;;;;;5048477;28;20460;-57
2023/10/25 14:28:36;;;;;;;10.32;2.72;;;;;;;;;;5075768;28;20032;-62
2023/10/25 14:31:01;;;;;;;10.73;1.77;;;;;;;;;;5045119;28;20123;-58
2023/10/25 14:33:26;;;;;;;3.17;1.67;;;;;;;;;;5044452;28;20028;-67
2023/10/25 14:35:52;;;;;;;9.15;2.00;;;;;;;;;;5042141;28;20032;-61
2023/10/25 14:38:18;;;;;;;5.15;1.80;;;;;;;;;;5042934;28;20035;-57
2023/10/25 14:40:43;;;;;;;6.75;2.13;;;;;;;;;;5043822;28;20025;-57
2023/10/25 14:43:10;;;;;;;6.30;1.90;;;;;;;;;;5043189;28;20039;-58
2023/10/25 14:45:35;;;;;;;7.68;2.10;;;;;;;;;;5042576;28;20020;-49
2023/10/25 14:48:00;;;;;;;3.85;1.80;;;;;;;;;;5040207;28;20089;-55
2023/10/25 14:50:26;;;;;;;7.55;1.90;;;;;;;;;;5043196;28;20048;-58
2023/10/25 14:52:51;;;;;;;4.53;1.70;;;;;;;;;;5042937;28;20033;-60
2023/10/25 14:55:17;;;;;;;1.90;1.50;;;;;;;;;;5043095;28;20050;-61
2023/10/25 14:57:42;;;;;;;4.25;1.98;;;;;;;;;;5041699;28;20130;-61
2023/10/25 15:00:09;;;;;;;3.47;1.90;;;;;;;;;;5040885;28;20028;-62
2023/10/25 15:02:35;;;;;;;3.50;1.75;;;;;;;;;;5032681;28;20047;-51
2023/10/25 15:05:00;;;;;;;36.40;3.40;;;;;;;;;;5028696;28;20119;-49
2023/10/25 15:07:25;;;;;;;6.57;1.80;;;;;;;;;;5028803;28;20102;-46
2023/10/25 15:09:51;;;;;;;4.13;1.87;;;;;;;;;;5041171;28;20056;-45
2023/10/25 15:12:16;;;;;;;4.95;1.67;;;;;;;;;;5026750;28;20286;-45
2023/10/25 15:14:41;;;;;;;4.30;1.70;;;;;;;;;;5025392;28;21146;-46
2023/10/25 15:17:08;;;;;;;7.22;1.60;;;;;;;;;;5026511;28;20025;-46
2023/10/25 15:19:33;;;;;;;4.07;1.67;;;;;;;;;;5026833;28;20016;-47
2023/10/25 15:21:58;;;;;;;4.45;1.70;;;;;;;;;;5027023;28;20071;-46
2023/10/25 15:24:25;;;;;;;2.70;1.60;;;;;;;;;;5024197;28;20563;-47
2023/10/25 15:26:50;;;;;;;6.10;1.85;;;;;;;;;;5059182;28;20097;-47
2023/10/25 15:29:15;;;;;;;5.43;1.77;;;;;;;;;;5028288;28;20370;-46
2023/10/25 15:31:41;;;;;;;4.50;2.22;;;;;;;;;;5028006;28;20043;-45
2023/10/25 15:34:06;;;;;;;3.75;1.98;;;;;;;;;;5026710;28;21437;-51
2023/10/25 15:36:31;;;;;;;5.80;2.00;;;;;;;;;;5027386;28;20780;-48
2023/10/25 15:38:56;;;;;;;3.70;1.85;;;;;;;;;;5059193;28;20037;-45
2023/10/25 15:41:23;;;;;;;4.10;2.20;;;;;;;;;;5028054;28;20037;-45
2023/10/25 15:43:49;;;;;;;4.18;2.28;;;;;;;;;;5026048;28;20072;-46
2023/10/25 15:46:27;;;;;;;3.63;1.98;;;;;;;;;;5027828;28;20029;-46
2023/10/25 15:48:53;;;;;;;5.68;2.17;;;;;;;;;;5026983;28;20149;-44
2023/10/25 15:51:20;;;;;;;3.17;2.05;;;;;;;;;;5028833;28;20496;-46
2023/10/25 15:53:45;;;;;;;2.63;2.00;;;;;;;;;;5028611;28;20103;-46
2023/10/25 15:56:11;;;;;;;3.55;2.03;;;;;;;;;;5028736;28;20107;-49
2023/10/25 15:58:37;;;;;;;3.53;2.20;;;;;;;;;;5028542;28;20464;-47
2023/10/25 16:01:06;;;;;;;6.18;2.00;;;;;;;;;;5029153;28;20024;-47
2023/10/25 16:03:31;;;;;;;6.40;1.98;;;;;;;;;;5027927;28;20036;-47
2023/10/25 16:05:56;;;;;;;3.35;1.70;;;;;;;;;;5028474;28;20594;-46
2023/10/25 16:08:22;;;;;;;5.93;1.83;;;;;;;;;;5028309;28;20037;-46
2023/10/25 16:10:47;;;;;;;4.07;2.05;;;;;;;;;;5028387;28;20039;-47
2023/10/25 16:13:12;;;;;;;2.72;1.90;;;;;;;;;;5032728;28;20453;-46
2023/10/25 16:15:37;;;;;;;2.78;1.92;;;;;;;;;;5027233;28;20091;-46
2023/10/25 16:18:03;;;;;;;3.17;2.30;;;;;;;;;;5028190;28;20377;-46
2023/10/25 16:20:28;;;;;;;1.95;1.75;;;;;;;;;;5029401;28;20166;-46
2023/10/25 16:22:53;;;;;;;4.55;1.90;;;;;;;;;;5031460;28;20033;-46
2023/10/25 16:25:19;;;;;;;2.28;1.60;;;;;;;;;;5030720;28;20037;-45
2023/10/25 16:27:44;;;;;;;2.75;1.70;;;;;;;;;;5029013;28;22046;-45
2023/10/25 16:30:11;;;;;;;2.63;1.80;;;;;;;;;;5029934;28;20409;-45
2023/10/25 16:32:36;;;;;;;2.50;1.85;;;;;;;;;;5030797;28;20048;-45
2023/10/25 16:35:01;;;;;;;2.85;1.85;;;;;;;;;;5027850;28;20159;-45
2023/10/25 16:37:27;;;;;;;3.80;1.80;;;;;;;;;;5027642;28;20025;-46
2023/10/25 16:39:52;;;;;;;2.83;1.70;;;;;;;;;;5025960;28;20119;-45
2023/10/25 16:42:19;;;;;;;1.73;1.38;;;;;;;;;;5028109;28;20107;-45
2023/10/25 16:44:47;;;;;;;2.38;1.70;;;;;;;;;;5059460;28;20020;-45
2023/10/25 16:47:12;;;;;;;2.70;1.52;;;;;;;;;;5027834;28;20041;-46
2023/10/25 16:49:37;;;;;;;3.55;1.60;;;;;;;;;;5027477;28;20206;-44
2023/10/25 16:52:03;;;;;;;2.55;2.00;;;;;;;;;;5026991;28;20107;-48
2023/10/25 16:54:28;;;;;;;2.28;1.75;;;;;;;;;;5026953;28;20126;-46
2023/10/25 16:56:53;;;;;;;1.85;1.60;;;;;;;;;;5025304;28;20144;-45
2023/10/25 16:59:18;;;;;;;2.60;1.80;;;;;;;;;;5027984;28;20460;-44
2023/10/25 17:01:44;;;;;;;3.53;2.00;;;;;;;;;;5026740;28;20036;-48
2023/10/25 17:04:09;;;;;;;4.32;2.20;;;;;;;;;;5025891;28;20298;-48
2023/10/25 17:06:34;;;;;;;2.85;1.65;;;;;;;;;;5026890;28;20678;-46
2023/10/25 17:09:00;;;;;;;3.33;1.70;;;;;;;;;;5026599;28;21350;-46
2023/10/25 17:11:25;;;;;;;3.80;1.90;;;;;;;;;;5026028;28;20411;-46
2023/10/25 17:13:50;;;;;;;2.10;1.52;;;;;;;;;;5028062;28;20363;-46
2023/10/25 17:16:15;;;;;;;2.55;1.67;;;;;;;;;;5026938;28;20110;-44
2023/10/25 17:18:41;;;;;;;2.22;1.80;;;;;;;;;;5028033;28;20086;-44
2023/10/25 17:21:10;;;;;;;3.03;1.85;;;;;;;;;;5026664;28;20037;-46
2023/10/25 17:23:35;;;;;;;2.38;1.70;;;;;;;;;;5028736;28;20024;-44
2023/10/25 17:26:01;;;;;;;2.83;1.52;;;;;;;;;;5026100;28;20091;-45
2023/10/25 17:28:28;;;;;;;2.17;1.48;;;;;;;;;;5028082;28;20575;-47
2023/10/25 17:30:55;;;;;;;3.15;1.85;;;;;;;;;;5026858;28;20040;-45
2023/10/25 17:33:20;;;;;;;2.17;1.58;;;;;;;;;;5027750;28;20432;-46
2023/10/25 17:35:49;;;;;;;3.70;1.90;;;;;;;;;;5026653;28;20027;-46
2023/10/25 17:38:15;;;;;;;3.00;1.80;;;;;;;;;;5028579;28;20036;-46
2023/10/25 17:40:40;;;;;;;2.25;1.70;;;;;;;;;;5026953;28;20029;-46
2023/10/25 17:43:06;;;;;;;2.88;1.70;;;;;;;;;;5027042;28;20083;-45
2023/10/25 17:45:33;;;;;;;3.30;1.90;;;;;;;;;;5026468;28;21611;-47
2023/10/25 17:47:58;;;;;;;3.33;1.92;;;;;;;;;;5025328;28;20481;-44
2023/10/25 17:50:23;;;;;;;5.10;2.05;;;;;;;;;;5026896;28;20045;-45
2023/10/25 17:52:49;;;;;;;3.33;1.58;;;;;;;;;;5029010;28;20111;-46
2023/10/25 17:55:15;;;;;;;1.70;1.60;;;;;;;;;;5025763;28;20040;-47
2023/10/25 17:57:41;;;;;;;2.83;1.75;;;;;;;;;;5027627;28;20440;-47
2023/10/25 18:00:06;;;;;;;2.03;1.63;;;;;;;;;;5024656;28;20557;-46
2023/10/25 18:02:32;;;;;;;3.15;2.03;;;;;;;;;;5030955;28;20029;-45
2023/10/25 18:04:57;;;;;;;3.65;1.90;;;;;;;;;;5026331;28;20016;-46
2023/10/25 18:07:23;;;;;;;3.38;1.92;;;;;;;;;;5025787;28;20078;-45
2023/10/25 18:09:48;;;;;;;2.20;1.73;;;;;;;;;;5026237;28;20043;-46
2023/10/25 18:12:14;;;;;;;2.08;1.83;;;;;;;;;;5027023;28;20183;-45
2023/10/25 18:14:39;;;;;;;2.92;1.73;;;;;;;;;;5026142;28;20065;-46
2023/10/25 18:17:06;;;;;;;2.40;1.65;;;;;;;;;;5026788;28;20103;-47
2023/10/25 18:19:31;;;;;;;1.50;1.40;;;;;;;;;;5025760;28;20147;-45
2023/10/25 18:22:00;;;;;;;2.75;2.00;;;;;;;;;;5026094;28;20607;-48
2023/10/25 18:24:26;;;;;;;3.03;1.77;;;;;;;;;;5026703;28;20089;-45
2023/10/25 18:26:51;;;;;;;2.60;1.70;;;;;;;;;;5027176;28;20033;-47
2023/10/25 18:29:17;;;;;;;3.03;1.70;;;;;;;;;;5027013;28;20057;-47
2023/10/25 18:31:44;;;;;;;2.90;2.08;;;;;;;;;;5027256;28;20028;-46
2023/10/25 18:34:09;;;;;;;2.00;1.60;;;;;;;;;;5026335;28;20468;-45
2023/10/25 18:36:34;;;;;;;2.95;1.77;;;;;;;;;;5026362;28;20037;-45
2023/10/25 18:39:00;;;;;;;6.97;1.67;;;;;;;;;;5044074;28;20578;-46
2023/10/25 18:41:25;;;;;;;12.93;2.15;;;;;;;;;;5030662;28;20092;-47
2023/10/25 18:43:50;;;;;;;3.10;1.77;;;;;;;;;;5030874;28;20107;-45
2023/10/25 18:46:15;;;;;;;3.60;1.63;;;;;;;;;;5061702;28;20025;-45
2023/10/25 18:48:41;;;;;;;2.97;1.43;;;;;;;;;;5030964;28;20033;-46
2023/10/25 18:51:09;;;;;;;2.63;1.73;;;;;;;;;;5029705;28;20378;-46
2023/10/25 18:53:34;;;;;;;3.63;1.65;;;;;;;;;;5029961;28;20028;-47
2023/10/25 18:56:00;;;;;;;3.42;1.83;;;;;;;;;;5030211;28;21821;-45
2023/10/25 18:58:27;;;;;;;5.13;1.80;;;;;;;;;;5030725;28;21572;-46
2023/10/25 19:00:52;;;;;;;3.50;1.65;;;;;;;;;;5031861;28;20485;-46
2023/10/25 19:03:18;;;;;;;4.45;1.83;;;;;;;;;;5030058;28;20067;-45
2023/10/25 19:05:44;;;;;;;3.45;1.60;;;;;;;;;;5029660;28;20081;-47
2023/10/25 19:08:09;;;;;;;2.35;1.80;;;;;;;;;;5029079;28;20029;-46
2023/10/25 19:10:34;;;;;;;3.47;1.60;;;;;;;;;;5030754;28;20036;-45
2023/10/25 19:13:00;;;;;;;2.42;1.50;;;;;;;;;;5030005;28;20024;-47
2023/10/25 19:15:25;;;;;;;2.13;1.60;;;;;;;;;;5031300;28;20033;-46
2023/10/25 19:17:50;;;;;;;3.42;1.85;;;;;;;;;;5030536;28;20670;-49
2023/10/25 19:20:15;;;;;;;2.35;1.60;;;;;;;;;;5031546;28;20591;-46
2023/10/25 19:22:41;;;;;;;2.28;1.77;;;;;;;;;;5031246;28;20029;-46
2023/10/25 19:25:06;;;;;;;2.17;1.60;;;;;;;;;;5029541;28;20028;-46
2023/10/25 19:27:31;;;;;;;2.05;1.60;;;;;;;;;;5029967;28;20055;-47
2023/10/25 19:29:56;;;;;;;3.22;1.80;;;;;;;;;;5030524;28;20032;-47
2023/10/25 19:32:22;;;;;;;1.80;1.58;;;;;;;;;;5029023;28;20029;-47
2023/10/25 19:34:49;;;;;;;3.42;1.52;;;;;;;;;;5061288;28;20158;-49
2023/10/25 19:37:14;;;;;;;4.57;1.70;;;;;;;;;;5027811;28;20115;-48
2023/10/25 19:39:39;;;;;;;3.20;1.67;;;;;;;;;;5028792;28;20025;-46
2023/10/25 19:42:05;;;;;;;2.08;1.70;;;;;;;;;;5060468;28;20501;-48
2023/10/25 19:44:30;;;;;;;2.38;1.85;;;;;;;;;;5028863;28;20036;-45
2023/10/25 19:46:55;;;;;;;2.38;1.50;;;;;;;;;;5029663;28;20040;-46
2023/10/25 19:49:21;;;;;;;2.45;1.58;;;;;;;;;;5028804;28;20032;-46
2023/10/25 19:51:46;;;;;;;2.53;1.60;;;;;;;;;;5028871;28;20045;-45
2023/10/25 19:54:11;;;;;;;2.53;1.67;;;;;;;;;;5029759;28;20469;-47
2023/10/25 19:56:36;;;;;;;1.50;1.40;;;;;;;;;;5028116;28;20147;-46
2023/10/25 19:59:03;;;;;;;2.17;1.50;;;;;;;;;;5027682;28;20071;-44
2023/10/25 20:01:29;;;;;;;2.78;1.70;;;;;;;;;;5027234;28;20033;-46
2023/10/25 20:03:54;;;;;;;2.35;1.70;;;;;;;;;;5029249;28;20066;-44
2023/10/25 20:06:19;;;;;;;2.75;1.70;;;;;;;;;;5029316;28;20465;-45
2023/10/25 20:08:49;;;;;;;2.50;1.60;;;;;;;;;;5026545;28;20067;-45
2023/10/25 20:11:15;;;;;;;2.20;1.73;;;;;;;;;;5028423;28;20028;-46
2023/10/25 20:13:41;;;;;;;2.08;1.80;;;;;;;;;;5028051;28;20035;-46
2023/10/25 20:16:06;;;;;;;2.05;1.60;;;;;;;;;;5027908;28;20029;-45
2023/10/25 20:18:32;;;;;;;2.97;1.65;;;;;;;;;;5028059;28;20714;-44
2023/10/25 20:20:59;;;;;;;2.50;1.80;;;;;;;;;;5043429;28;20095;-46
2023/10/25 20:23:24;;;;;;;2.20;1.80;;;;;;;;;;5029059;28;20287;-46
2023/10/25 20:25:53;;;;;;;4.50;1.80;;;;;;;;;;5058742;28;20024;-45
2023/10/25 20:28:19;;;;;;;3.85;2.10;;;;;;;;;;5032534;28;20096;-45
2023/10/25 20:30:44;;;;;;;2.35;1.90;;;;;;;;;;5027485;28;20029;-45
2023/10/25 20:33:10;;;;;;;3.38;1.98;;;;;;;;;;5027826;28;20036;-45
2023/10/25 20:35:36;;;;;;;2.05;1.63;;;;;;;;;;5027782;28;20445;-47
2023/10/25 20:38:01;;;;;;;2.47;1.83;;;;;;;;;;5028341;28;20340;-44
2023/10/25 20:40:27;;;;;;;2.40;1.90;;;;;;;;;;5027725;28;20605;-45
2023/10/25 20:42:52;;;;;;;2.65;1.70;;;;;;;;;;5028349;28;20037;-48
2023/10/25 20:45:17;;;;;;;4.05;2.03;;;;;;;;;;5026643;28;20597;-47
2023/10/25 20:47:44;;;;;;;3.13;1.90;;;;;;;;;;5028096;28;20039;-45
2023/10/25 20:50:09;;;;;;;3.60;1.90;;;;;;;;;;5028204;28;20137;-45
2023/10/25 20:52:34;;;;;;;2.65;1.90;;;;;;;;;;5026731;28;20033;-45
2023/10/25 20:54:59;;;;;;;2.55;2.00;;;;;;;;;;5027304;28;20056;-45
2023/10/25 20:57:25;;;;;;;2.88;1.63;;;;;;;;;;5040257;28;20104;-46
2023/10/25 20:59:52;;;;;;;2.42;1.80;;;;;;;;;;5027528;28;20115;-47
2023/10/25 21:02:17;;;;;;;3.28;1.70;;;;;;;;;;5027547;28;20382;-46
2023/10/25 21:04:43;;;;;;;2.25;1.90;;;;;;;;;;5027376;28;20430;-46
2023/10/25 21:07:08;;;;;;;3.35;1.90;;;;;;;;;;5027900;28;20112;-47
2023/10/25 21:09:33;;;;;;;2.40;1.98;;;;;;;;;;5026489;28;20053;-48
2023/10/25 21:11:58;;;;;;;2.67;1.90;;;;;;;;;;5026940;28;20033;-46
2023/10/25 21:14:24;;;;;;;2.90;1.98;;;;;;;;;;5027885;28;20028;-45
2023/10/25 21:16:49;;;;;;;2.35;1.95;;;;;;;;;;5026574;28;20623;-46
2023/10/25 21:19:14;;;;;;;3.80;2.20;;;;;;;;;;5027214;28;20029;-45
2023/10/25 21:21:39;;;;;;;2.15;1.90;;;;;;;;;;5028309;28;20723;-46
2023/10/25 21:24:05;;;;;;;2.45;1.80;;;;;;;;;;5027442;28;20445;-46
2023/10/25 21:26:30;;;;;;;3.58;1.98;;;;;;;;;;5059634;28;20044;-45
2023/10/25 21:28:55;;;;;;;2.92;1.60;;;;;;;;;;5026994;28;20036;-45
2023/10/25 21:31:21;;;;;;;2.28;1.85;;;;;;;;;;5027102;28;21138;-46
2023/10/25 21:33:46;;;;;;;2.97;1.90;;;;;;;;;;5026513;28;20112;-47
2023/10/25 21:36:12;;;;;;;2.13;1.83;;;;;;;;;;5028299;28;20038;-46
2023/10/25 21:38:37;;;;;;;2.55;1.80;;;;;;;;;;5026603;28;20035;-46
2023/10/25 21:41:03;;;;;;;3.55;1.90;;;;;;;;;;5027129;28;20444;-45
2023/10/25 21:43:29;;;;;;;2.20;1.75;;;;;;;;;;5024817;28;20020;-45
2023/10/25 21:45:55;;;;;;;5.82;2.22;;;;;;;;;;5026849;28;20025;-46
2023/10/25 21:48:21;;;;;;;3.30;2.15;;;;;;;;;;5027782;28;20044;-44
2023/10/25 21:50:46;;;;;;;2.95;2.00;;;;;;;;;;5027052;28;20865;-47
2023/10/25 21:53:11;;;;;;;2.17;1.85;;;;;;;;;;5026329;28;20020;-44
2023/10/25 21:55:39;;;;;;;2.83;1.83;;;;;;;;;;5026920;28;20150;-45
2023/10/25 21:58:04;;;;;;;2.85;1.92;;;;;;;;;;5025928;28;20054;-46
2023/10/25 22:00:30;;;;;;;4.25;1.80;;;;;;;;;;5024175;28;20024;-46
2023/10/25 22:02:55;;;;;;;3.17;2.05;;;;;;;;;;5028224;28;21523;-45
2023/10/25 22:05:20;;;;;;;3.10;2.00;;;;;;;;;;5026419;28;20033;-46
2023/10/25 22:07:46;;;;;;;4.72;2.03;;;;;;;;;;5026674;28;20051;-44
2023/10/25 22:10:11;;;;;;;4.15;2.10;;;;;;;;;;5027301;28;20060;-44
2023/10/25 22:12:36;;;;;;;2.63;1.80;;;;;;;;;;5028212;28;21664;-45
2023/10/25 22:15:02;;;;;;;4.30;2.15;;;;;;;;;;5030036;28;20020;-45
2023/10/25 22:17:27;;;;;;;4.05;2.00;;;;;;;;;;5030385;28;20025;-47
2023/10/25 22:19:53;;;;;;;2.55;2.00;;;;;;;;;;5030563;28;20054;-45
2023/10/25 22:22:18;;;;;;;2.95;1.90;;;;;;;;;;5031526;28;20032;-45
2023/10/25 22:24:43;;;;;;;3.60;2.30;;;;;;;;;;5028079;28;20651;-47
2023/10/25 22:27:08;;;;;;;4.80;2.25;;;;;;;;;;5030640;28;20562;-46
2023/10/25 22:29:34;;;;;;;3.85;2.15;;;;;;;;;;5030761;28;20035;-45
2023/10/25 22:31:59;;;;;;;2.75;1.90;;;;;;;;;;5028409;28;20059;-45
2023/10/25 22:34:24;;;;;;;4.60;1.95;;;;;;;;;;5031112;28;20028;-46
2023/10/25 22:36:50;;;;;;;3.45;2.13;;;;;;;;;;5029453;28;20025;-46
2023/10/25 22:39:16;;;;;;;2.78;2.10;;;;;;;;;;5029922;28;20029;-46
2023/10/25 22:41:44;;;;;;;2.83;1.83;;;;;;;;;;5030665;28;20036;-46
2023/10/25 22:44:10;;;;;;;4.60;2.13;;;;;;;;;;5030531;28;20758;-46
2023/10/25 22:46:36;;;;;;;3.70;2.30;;;;;;;;;;5030257;28;20083;-46
2023/10/25 22:49:01;;;;;;;3.63;2.13;;;;;;;;;;5029878;28;20039;-46
2023/10/25 22:51:27;;;;;;;4.10;2.15;;;;;;;;;;5028820;28;20417;-44
2023/10/25 22:53:52;;;;;;;8.93;2.42;;;;;;;;;;5031100;28;20024;-46
2023/10/25 22:56:17;;;;;;;6.43;2.80;;;;;;;;;;5030506;28;20028;-45
2023/10/25 22:58:43;;;;;;;4.25;1.98;;;;;;;;;;5042753;28;20132;-45
2023/10/25 23:01:08;;;;;;;3.27;2.00;;;;;;;;;;5030520;28;20044;-45
2023/10/25 23:03:33;;;;;;;4.93;2.10;;;;;;;;;;5029614;28;20286;-46
2023/10/25 23:05:59;;;;;;;4.63;2.20;;;;;;;;;;5028667;28;20033;-46
2023/10/25 23:08:25;;;;;;;4.78;2.20;;;;;;;;;;5030683;28;20532;-45
2023/10/25 23:10:50;;;;;;;3.60;2.42;;;;;;;;;;5030195;28;20017;-45
2023/10/25 23:13:16;;;;;;;5.53;2.58;;;;;;;;;;5030057;28;20021;-45
2023/10/25 23:15:41;;;;;;;3.67;2.25;;;;;;;;;;5030398;28;20036;-45
2023/10/25 23:18:06;;;;;;;3.55;2.22;;;;;;;;;;5031102;28;20419;-45
2023/10/25 23:20:32;;;;;;;3.30;2.10;;;;;;;;;;5030760;28;20445;-43
2023/10/25 23:22:57;;;;;;;4.28;2.38;;;;;;;;;;5041384;28;20049;-47
2023/10/25 23:25:22;;;;;;;2.80;2.33;;;;;;;;;;5028289;28;20401;-46
2023/10/25 23:27:47;;;;;;;3.13;2.05;;;;;;;;;;5029614;28;20029;-48
2023/10/25 23:30:13;;;;;;;3.85;2.40;;;;;;;;;;5029308;28;20393;-46
2023/10/25 23:32:38;;;;;;;2.42;2.20;;;;;;;;;;5028510;28;20029;-47
2023/10/25 23:35:03;;;;;;;3.92;2.33;;;;;;;;;;5030376;28;20752;-45
2023/10/25 23:37:29;;;;;;;2.47;2.17;;;;;;;;;;5029476;28;20036;-47
2023/10/25 23:39:54;;;;;;;2.63;2.13;;;;;;;;;;5027134;28;20017;-45
2023/10/25 23:42:19;;;;;;;3.03;2.22;;;;;;;;;;5027305;28;20047;-45
2023/10/25 23:44:44;;;;;;;6.20;2.33;;;;;;;;;;5029281;28;20071;-47
2023/10/25 23:47:10;;;;;;;2.70;2.30;;;;;;;;;;5028944;28;20159;-48
2023/10/25 23:49:35;;;;;;;2.85;1.92;;;;;;;;;;5028479;28;20359;-46
2023/10/25 23:52:00;;;;;;;2.97;2.17;;;;;;;;;;5028096;28;20055;-46
2023/10/25 23:54:26;;;;;;;4.22;2.38;;;;;;;;;;5029037;28;20032;-46
2023/10/25 23:56:51;;;;;;;2.70;2.22;;;;;;;;;;5033775;28;20966;-45
2023/10/25 23:59:17;;;;;;;2.50;2.30;;;;;;;;;;5030868;28;20429;-47
